Time,TemperatureF,DewpointF,PressureIn,WindDirection,WindDirectionDegrees,WindSpeedMPH,WindSpeedGustMPH,Humidity,HourlyPrecipIn,Conditions,Clouds,dailyrainin,SoftwareType,DateUTC
2013-01-24 00:03:00,8.0,-99.9,29.95,WNW,292,24.0,31.0,-999,-99.99,,,-99.99,,2013-01-24 05:03:00,
2013-01-24 00:12:00,8.0,-99.9,29.95,WNW,292,24.0,31.0,-999,-99.99,,,-99.99,,2013-01-24 05:12:00,
2013-01-24 00:23:00,8.0,-99.9,29.95,WNW,292,24.0,31.0,-999,-99.99,,,-99.99,,2013-01-24 05:23:00,
2013-01-24 00:30:00,8.0,-99.9,29.93,WNW,291,22.0,30.0,-999,-99.99,,,-99.99,,2013-01-24 05:30:00,
2013-01-24 00:43:00,8.0,-99.9,29.94,WNW,303,18.0,26.0,-999,-99.99,,,-99.99,,2013-01-24 05:43:00,
2013-01-24 00:53:00,8.0,-99.9,29.94,WNW,303,18.0,26.0,-999,-99.99,,,-99.99,,2013-01-24 05:53:00,
2013-01-24 01:03:00,8.0,-99.9,29.93,WNW,291,22.0,30.0,-999,-99.99,,,-99.99,,2013-01-24 06:03:00,
2013-01-24 01:12:00,8.0,-99.9,29.93,WNW,291,22.0,30.0,-999,-99.99,,,-99.99,,2013-01-24 06:12:00,
2013-01-24 01:22:00,8.0,-99.9,29.93,WNW,291,22.0,30.0,-999,-99.99,,,-99.99,,2013-01-24 06:22:00,
2013-01-24 01:30:00,9.0,-99.9,29.93,WNW,301,26.0,32.0,-999,-99.99,,,-99.99,,2013-01-24 06:30:00,
2013-01-24 01:43:00,8.0,-99.9,29.93,WNW,288,24.0,37.0,-999,-99.99,,,-99.99,,2013-01-24 06:43:00,
2013-01-24 01:53:00,8.0,-99.9,29.93,WNW,288,24.0,37.0,-999,-99.99,,,-99.99,,2013-01-24 06:53:00,
2013-01-24 02:00:00,9.0,-99.9,29.91,WNW,294,30.0,37.0,-999,-99.99,,,-99.99,,2013-01-24 07:00:00,
2013-01-24 02:03:00,9.0,-99.9,29.93,WNW,301,26.0,32.0,-999,-99.99,,,-99.99,,2013-01-24 07:03:00,
2013-01-24 02:13:00,9.0,-99.9,29.93,WNW,301,26.0,32.0,-999,-99.99,,,-99.99,,2013-01-24 07:13:00,
2013-01-24 02:23:00,9.0,-99.9,29.93,WNW,301,26.0,32.0,-999,-99.99,,,-99.99,,2013-01-24 07:23:00,
2013-01-24 02:43:00,9.0,-99.9,29.91,WNW,294,30.0,37.0,-999,-99.99,,,-99.99,,2013-01-24 07:43:00,
2013-01-24 02:53:00,9.0,-99.9,29.91,WNW,294,30.0,37.0,-999,-99.99,,,-99.99,,2013-01-24 07:53:00,
2013-01-24 03:30:00,9.0,-99.9,29.91,WNW,285,26.0,39.0,-999,-99.99,,,-99.99,,2013-01-24 08:30:00,
2013-01-24 03:43:00,9.0,-99.9,29.92,WNW,295,29.0,39.0,-999,-99.99,,,-99.99,,2013-01-24 08:43:00,
2013-01-24 03:53:00,9.0,-99.9,29.92,WNW,295,29.0,39.0,-999,-99.99,,,-99.99,,2013-01-24 08:53:00,
2013-01-24 04:03:00,9.0,-99.9,29.91,WNW,285,26.0,39.0,-999,-99.99,,,-99.99,,2013-01-24 09:03:00,
2013-01-24 04:13:00,9.0,-99.9,29.91,WNW,285,26.0,39.0,-999,-99.99,,,-99.99,,2013-01-24 09:13:00,
2013-01-24 04:23:00,9.0,-99.9,29.91,WNW,285,26.0,39.0,-999,-99.99,,,-99.99,,2013-01-24 09:23:00,
2013-01-24 04:30:00,9.0,-99.9,29.90,WNW,291,27.0,39.0,-999,-99.99,,,-99.99,,2013-01-24 09:30:00,
2013-01-24 04:43:00,8.0,-99.9,29.90,WNW,288,30.0,41.0,-999,-99.99,,,-99.99,,2013-01-24 09:43:00,
2013-01-24 04:53:00,8.0,-99.9,29.90,WNW,288,30.0,41.0,-999,-99.99,,,-99.99,,2013-01-24 09:53:00,
2013-01-24 05:03:00,9.0,-99.9,29.90,WNW,291,27.0,39.0,-999,-99.99,,,-99.99,,2013-01-24 10:03:00,
2013-01-24 05:13:00,9.0,-99.9,29.90,WNW,291,27.0,39.0,-999,-99.99,,,-99.99,,2013-01-24 10:13:00,
2013-01-24 05:23:00,9.0,-99.9,29.90,WNW,291,27.0,39.0,-999,-99.99,,,-99.99,,2013-01-24 10:23:00,
2013-01-24 05:30:00,9.0,-99.9,29.88,NW,309,23.0,28.0,-999,-99.99,,,-99.99,,2013-01-24 10:30:00,
2013-01-24 05:44:00,9.0,-99.9,29.89,WNW,295,27.0,42.0,-999,-99.99,,,-99.99,,2013-01-24 10:44:00,
2013-01-24 05:53:00,9.0,-99.9,29.89,WNW,295,27.0,42.0,-999,-99.99,,,-99.99,,2013-01-24 10:53:00,
2013-01-24 06:03:00,9.0,-99.9,29.88,NW,309,23.0,28.0,-999,-99.99,,,-99.99,,2013-01-24 11:03:00,
2013-01-24 06:12:00,9.0,-99.9,29.88,NW,309,23.0,28.0,-999,-99.99,,,-99.99,,2013-01-24 11:12:00,
2013-01-24 06:23:00,9.0,-99.9,29.88,NW,309,23.0,28.0,-999,-99.99,,,-99.99,,2013-01-24 11:23:00,
2013-01-24 06:30:00,9.0,-99.9,29.88,WNW,296,24.0,30.0,-999,-99.99,,,-99.99,,2013-01-24 11:30:00,
2013-01-24 06:43:00,8.0,-99.9,29.89,WNW,302,24.0,30.0,-999,-99.99,,,-99.99,,2013-01-24 11:43:00,
2013-01-24 06:53:00,8.0,-99.9,29.89,WNW,302,24.0,30.0,-999,-99.99,,,-99.99,,2013-01-24 11:53:00,
2013-01-24 07:03:00,9.0,-99.9,29.88,WNW,296,24.0,30.0,-999,-99.99,,,-99.99,,2013-01-24 12:03:00,
2013-01-24 07:12:00,9.0,-99.9,29.88,WNW,296,24.0,30.0,-999,-99.99,,,-99.99,,2013-01-24 12:12:00,
2013-01-24 07:23:00,9.0,-99.9,29.88,WNW,296,24.0,30.0,-999,-99.99,,,-99.99,,2013-01-24 12:23:00,
2013-01-24 07:30:00,11.0,-99.9,29.89,West,278,25.0,44.0,-999,-99.99,,,-99.99,,2013-01-24 12:30:00,
2013-01-24 07:43:00,9.0,-99.9,29.88,NW,304,24.0,30.0,-999,-99.99,,,-99.99,,2013-01-24 12:43:00,
2013-01-24 07:53:00,9.0,-99.9,29.88,NW,304,24.0,30.0,-999,-99.99,,,-99.99,,2013-01-24 12:53:00,
2013-01-24 08:03:00,11.0,-99.9,29.89,West,278,25.0,44.0,-999,-99.99,,,-99.99,,2013-01-24 13:03:00,
2013-01-24 08:13:00,11.0,-99.9,29.89,West,278,25.0,44.0,-999,-99.99,,,-99.99,,2013-01-24 13:13:00,
2013-01-24 08:23:00,11.0,-99.9,29.89,West,278,25.0,44.0,-999,-99.99,,,-99.99,,2013-01-24 13:23:00,
2013-01-24 08:30:00,10.0,-99.9,29.90,WNW,283,32.0,41.0,-999,-99.99,,,-99.99,,2013-01-24 13:30:00,
2013-01-24 08:43:00,9.0,-99.9,29.90,WNW,285,25.0,35.0,-999,-99.99,,,-99.99,,2013-01-24 13:43:00,
2013-01-24 08:53:00,9.0,-99.9,29.90,WNW,285,25.0,35.0,-999,-99.99,,,-99.99,,2013-01-24 13:53:00,
2013-01-24 09:03:00,10.0,-99.9,29.90,WNW,283,32.0,41.0,-999,-99.99,,,-99.99,,2013-01-24 14:03:00,
2013-01-24 09:13:00,10.0,-99.9,29.90,WNW,283,32.0,41.0,-999,-99.99,,,-99.99,,2013-01-24 14:13:00,
2013-01-24 09:23:00,10.0,-99.9,29.90,WNW,283,32.0,41.0,-999,-99.99,,,-99.99,,2013-01-24 14:23:00,
2013-01-24 09:30:00,12.0,-99.9,29.90,WSW,241,15.0,43.0,-999,-99.99,,,-99.99,,2013-01-24 14:30:00,
2013-01-24 09:43:00,9.0,-99.9,29.89,WNW,289,34.0,46.0,-999,-99.99,,,-99.99,,2013-01-24 14:43:00,
2013-01-24 09:54:00,9.0,-99.9,29.89,WNW,289,34.0,46.0,-999,-99.99,,,-99.99,,2013-01-24 14:54:00,
2013-01-24 10:04:00,12.0,-99.9,29.90,WSW,241,15.0,43.0,-999,-99.99,,,-99.99,,2013-01-24 15:04:00,
2013-01-24 10:13:00,12.0,-99.9,29.90,WSW,241,15.0,43.0,-999,-99.99,,,-99.99,,2013-01-24 15:13:00,
2013-01-24 10:23:00,12.0,-99.9,29.90,WSW,241,15.0,43.0,-999,-99.99,,,-99.99,,2013-01-24 15:23:00,
2013-01-24 10:30:00,11.0,-99.9,29.88,NW,305,28.0,36.0,-999,-99.99,,,-99.99,,2013-01-24 15:30:00,
2013-01-24 10:43:00,11.0,-99.9,29.89,WNW,301,27.0,35.0,-999,-99.99,,,-99.99,,2013-01-24 15:43:00,
2013-01-24 10:53:00,11.0,-99.9,29.89,WNW,301,27.0,35.0,-999,-99.99,,,-99.99,,2013-01-24 15:53:00,
2013-01-24 11:04:00,11.0,-99.9,29.88,NW,305,28.0,36.0,-999,-99.99,,,-99.99,,2013-01-24 16:04:00,
2013-01-24 11:12:00,11.0,-99.9,29.88,NW,305,28.0,36.0,-999,-99.99,,,-99.99,,2013-01-24 16:12:00,
2013-01-24 11:23:00,11.0,-99.9,29.88,NW,305,28.0,36.0,-999,-99.99,,,-99.99,,2013-01-24 16:23:00,
2013-01-24 11:30:00,12.0,-99.9,29.85,WNW,294,27.0,32.0,-999,-99.99,,,-99.99,,2013-01-24 16:30:00,
2013-01-24 12:03:00,12.0,-99.9,29.85,WNW,294,27.0,32.0,-999,-99.99,,,-99.99,,2013-01-24 17:03:00,
2013-01-24 12:12:00,12.0,-99.9,29.85,WNW,294,27.0,32.0,-999,-99.99,,,-99.99,,2013-01-24 17:12:00,
2013-01-24 12:22:00,12.0,-99.9,29.85,WNW,294,27.0,32.0,-999,-99.99,,,-99.99,,2013-01-24 17:22:00,
2013-01-24 12:30:00,15.0,-99.9,29.85,WSW,238,16.0,35.0,-999,-99.99,,,-99.99,,2013-01-24 17:30:00,
2013-01-24 12:43:00,13.0,-99.9,29.85,WNW,299,27.0,34.0,-999,-99.99,,,-99.99,,2013-01-24 17:43:00,
2013-01-24 12:53:00,13.0,-99.9,29.85,WNW,299,27.0,34.0,-999,-99.99,,,-99.99,,2013-01-24 17:53:00,
2013-01-24 13:03:00,15.0,-99.9,29.85,WSW,238,16.0,35.0,-999,-99.99,,,-99.99,,2013-01-24 18:03:00,
2013-01-24 13:13:00,15.0,-99.9,29.85,WSW,238,16.0,35.0,-999,-99.99,,,-99.99,,2013-01-24 18:13:00,
2013-01-24 13:23:00,15.0,-99.9,29.85,WSW,238,16.0,35.0,-999,-99.99,,,-99.99,,2013-01-24 18:23:00,
2013-01-24 13:30:00,14.0,-99.9,29.81,NW,304,32.0,38.0,-999,-99.99,,,-99.99,,2013-01-24 18:30:00,
2013-01-24 13:43:00,13.0,-99.9,29.83,NW,307,27.0,35.0,-999,-99.99,,,-99.99,,2013-01-24 18:43:00,
2013-01-24 13:54:00,13.0,-99.9,29.83,NW,307,27.0,35.0,-999,-99.99,,,-99.99,,2013-01-24 18:54:00,
2013-01-24 14:02:00,14.0,-99.9,29.81,NW,304,32.0,38.0,-999,-99.99,,,-99.99,,2013-01-24 19:02:00,
2013-01-24 14:13:00,14.0,-99.9,29.81,NW,304,32.0,38.0,-999,-99.99,,,-99.99,,2013-01-24 19:13:00,
2013-01-24 14:22:00,14.0,-99.9,29.81,NW,304,32.0,38.0,-999,-99.99,,,-99.99,,2013-01-24 19:22:00,
2013-01-24 14:30:00,14.0,-99.9,29.81,WNW,296,29.0,36.0,-999,-99.99,,,-99.99,,2013-01-24 19:30:00,
2013-01-24 14:42:00,14.0,-99.9,29.82,WNW,303,28.0,35.0,-999,-99.99,,,-99.99,,2013-01-24 19:42:00,
2013-01-24 14:53:00,14.0,-99.9,29.82,WNW,303,28.0,35.0,-999,-99.99,,,-99.99,,2013-01-24 19:53:00,
2013-01-24 15:03:00,14.0,-99.9,29.81,WNW,296,29.0,36.0,-999,-99.99,,,-99.99,,2013-01-24 20:03:00,
2013-01-24 15:12:00,14.0,-99.9,29.81,WNW,296,29.0,36.0,-999,-99.99,,,-99.99,,2013-01-24 20:12:00,
2013-01-24 15:23:00,14.0,-99.9,29.81,WNW,296,29.0,36.0,-999,-99.99,,,-99.99,,2013-01-24 20:23:00,
2013-01-24 15:30:00,15.0,-99.9,29.80,WNW,294,30.0,37.0,-999,-99.99,,,-99.99,,2013-01-24 20:30:00,
2013-01-24 15:43:00,15.0,-99.9,29.80,WNW,292,29.0,39.0,-999,-99.99,,,-99.99,,2013-01-24 20:43:00,
2013-01-24 15:53:00,15.0,-99.9,29.80,WNW,292,29.0,39.0,-999,-99.99,,,-99.99,,2013-01-24 20:53:00,
2013-01-24 16:03:00,15.0,-99.9,29.80,WNW,294,30.0,37.0,-999,-99.99,,,-99.99,,2013-01-24 21:03:00,
2013-01-24 16:13:00,15.0,-99.9,29.80,WNW,294,30.0,37.0,-999,-99.99,,,-99.99,,2013-01-24 21:13:00,
2013-01-24 16:23:00,15.0,-99.9,29.80,WNW,294,30.0,37.0,-999,-99.99,,,-99.99,,2013-01-24 21:23:00,
2013-01-24 16:30:00,15.0,-99.9,29.80,WNW,296,25.0,33.0,-999,-99.99,,,-99.99,,2013-01-24 21:30:00,
2013-01-24 16:44:00,15.0,-99.9,29.80,WNW,299,32.0,41.0,-999,-99.99,,,-99.99,,2013-01-24 21:44:00,
2013-01-24 16:53:00,15.0,-99.9,29.80,WNW,299,32.0,41.0,-999,-99.99,,,-99.99,,2013-01-24 21:53:00,
2013-01-24 17:03:00,15.0,-99.9,29.80,WNW,296,25.0,33.0,-999,-99.99,,,-99.99,,2013-01-24 22:03:00,
2013-01-24 17:12:00,15.0,-99.9,29.80,WNW,296,25.0,33.0,-999,-99.99,,,-99.99,,2013-01-24 22:12:00,
2013-01-24 17:23:00,15.0,-99.9,29.80,WNW,296,25.0,33.0,-999,-99.99,,,-99.99,,2013-01-24 22:23:00,
2013-01-24 17:30:00,15.0,-99.9,29.83,NW,308,29.0,34.0,-999,-99.99,,,-99.99,,2013-01-24 22:30:00,
2013-01-24 17:43:00,16.0,-99.9,29.81,WNW,301,29.0,41.0,-999,-99.99,,,-99.99,,2013-01-24 22:43:00,
2013-01-24 17:53:00,16.0,-99.9,29.81,WNW,301,29.0,41.0,-999,-99.99,,,-99.99,,2013-01-24 22:53:00,
2013-01-24 18:03:00,15.0,-99.9,29.83,NW,308,29.0,34.0,-999,-99.99,,,-99.99,,2013-01-24 23:03:00,
2013-01-24 18:13:00,15.0,-99.9,29.83,NW,308,29.0,34.0,-999,-99.99,,,-99.99,,2013-01-24 23:13:00,
2013-01-24 18:22:00,15.0,-99.9,29.83,NW,308,29.0,34.0,-999,-99.99,,,-99.99,,2013-01-24 23:22:00,
2013-01-24 18:30:00,15.0,-99.9,29.84,NW,324,25.0,34.0,-999,-99.99,,,-99.99,,2013-01-24 23:30:00,
2013-01-24 18:43:00,15.0,-99.9,29.83,NW,313,25.0,32.0,-999,-99.99,,,-99.99,,2013-01-24 23:43:00,
2013-01-24 18:52:00,15.0,-99.9,29.83,NW,313,25.0,32.0,-999,-99.99,,,-99.99,,2013-01-24 23:52:00,
2013-01-24 19:02:00,15.0,-99.9,29.84,NW,324,25.0,34.0,-999,-99.99,,,-99.99,,2013-01-25 00:02:00,
2013-01-24 19:12:00,15.0,-99.9,29.84,NW,324,25.0,34.0,-999,-99.99,,,-99.99,,2013-01-25 00:12:00,
2013-01-24 19:22:00,15.0,-99.9,29.84,NW,324,25.0,34.0,-999,-99.99,,,-99.99,,2013-01-25 00:22:00,
2013-01-24 19:30:00,13.0,-99.9,29.90,NW,316,27.0,36.0,-999,-99.99,,,-99.99,,2013-01-25 00:30:00,
2013-01-24 19:42:00,15.0,-99.9,29.88,NW,314,30.0,38.0,-999,-99.99,,,-99.99,,2013-01-25 00:42:00,
2013-01-24 19:53:00,15.0,-99.9,29.88,NW,314,30.0,38.0,-999,-99.99,,,-99.99,,2013-01-25 00:53:00,
2013-01-24 20:02:00,13.0,-99.9,29.90,NW,316,27.0,36.0,-999,-99.99,,,-99.99,,2013-01-25 01:02:00,
2013-01-24 20:13:00,13.0,-99.9,29.90,NW,316,27.0,36.0,-999,-99.99,,,-99.99,,2013-01-25 01:13:00,
2013-01-24 20:22:00,13.0,-99.9,29.90,NW,316,27.0,36.0,-999,-99.99,,,-99.99,,2013-01-25 01:22:00,
2013-01-24 20:30:00,10.0,-99.9,29.91,NW,325,28.0,35.0,-999,-99.99,,,-99.99,,2013-01-25 01:30:00,
2013-01-24 20:43:00,18.0,-99.9,29.91,WNW,283,23.0,39.0,-999,-99.99,,,-99.99,,2013-01-25 01:43:00,
2013-01-24 20:52:00,18.0,-99.9,29.91,WNW,283,23.0,39.0,-999,-99.99,,,-99.99,,2013-01-25 01:52:00,
2013-01-24 21:03:00,10.0,-99.9,29.91,NW,325,28.0,35.0,-999,-99.99,,,-99.99,,2013-01-25 02:03:00,
2013-01-24 21:12:00,10.0,-99.9,29.91,NW,325,28.0,35.0,-999,-99.99,,,-99.99,,2013-01-25 02:12:00,
2013-01-24 21:22:00,10.0,-99.9,29.91,NW,325,28.0,35.0,-999,-99.99,,,-99.99,,2013-01-25 02:22:00,
2013-01-24 21:30:00,10.0,-99.9,29.93,NW,319,33.0,40.0,-999,-99.99,,,-99.99,,2013-01-25 02:30:00,
2013-01-24 21:43:00,9.0,-99.9,29.93,NW,326,24.0,32.0,-999,-99.99,,,-99.99,,2013-01-25 02:43:00,
2013-01-24 21:53:00,9.0,-99.9,29.93,NW,326,24.0,32.0,-999,-99.99,,,-99.99,,2013-01-25 02:53:00,
2013-01-24 22:02:00,10.0,-99.9,29.93,NW,319,33.0,40.0,-999,-99.99,,,-99.99,,2013-01-25 03:02:00,
2013-01-24 22:12:00,10.0,-99.9,29.93,NW,319,33.0,40.0,-999,-99.99,,,-99.99,,2013-01-25 03:12:00,
2013-01-24 22:22:00,10.0,-99.9,29.93,NW,319,33.0,40.0,-999,-99.99,,,-99.99,,2013-01-25 03:22:00,
2013-01-24 22:30:00,9.0,-99.9,29.96,NW,311,26.0,32.0,-999,-99.99,,,-99.99,,2013-01-25 03:30:00,
2013-01-24 22:42:00,10.0,-99.9,29.94,NW,316,27.0,35.0,-999,-99.99,,,-99.99,,2013-01-25 03:42:00,
2013-01-24 22:53:00,10.0,-99.9,29.94,NW,316,27.0,35.0,-999,-99.99,,,-99.99,,2013-01-25 03:53:00,
2013-01-24 23:02:00,9.0,-99.9,29.96,NW,311,26.0,32.0,-999,-99.99,,,-99.99,,2013-01-25 04:02:00,
2013-01-24 23:12:00,9.0,-99.9,29.96,NW,311,26.0,32.0,-999,-99.99,,,-99.99,,2013-01-25 04:12:00,
2013-01-24 23:22:00,9.0,-99.9,29.96,NW,311,26.0,32.0,-999,-99.99,,,-99.99,,2013-01-25 04:22:00,
2013-01-24 23:30:00,0.0,-99.9,-100.00,North,-999,0.0,0.0,-999,-99.99,,,-99.99,,2013-01-25 04:30:00,